Time;durP1;ratioP1;P1;durP2;ratioP2;P2;SDS_P1;SDS_P2;PMS_P1;PMS_P2;Temp;Humidity;BMP_temperature;BMP_pressure;BME280_temperature;BME280_humidity;BME280_pressure;Samples;Min_cycle;Max_cycle;Signal;HPM_P1;HPM_P2
2021/09/20 00:01:51;;;;;;;8.13;6.90;;;11.90;99.90;;;;;;4144739;28;20057;-72
2021/09/20 00:03:52;;;;;;;9.73;7.22;;;11.80;99.90;;;;;;4142214;28;20041;-73
2021/09/20 00:05:52;;;;;;;11.10;7.47;;;11.70;99.90;;;;;;4147245;28;20029;-73
2021/09/20 00:07:53;;;;;;;9.48;7.68;;;11.60;99.90;;;;;;4141584;28;20513;-74
2021/09/20 00:09:54;;;;;;;9.15;8.15;;;11.40;99.90;;;;;;4144169;28;20038;-73
2021/09/20 00:11:55;;;;;;;8.98;7.53;;;11.30;99.90;;;;;;4142611;28;20065;-72
2021/09/20 00:13:55;;;;;;;9.93;8.13;;;11.30;99.90;;;;;;4142317;28;20121;-73
2021/09/20 00:15:56;;;;;;;9.30;7.90;;;11.20;99.90;;;;;;4144089;28;20091;-73
2021/09/20 00:17:57;;;;;;;8.27;7.10;;;11.20;99.90;;;;;;4144320;28;20057;-73
2021/09/20 00:19:58;;;;;;;12.43;8.02;;;11.20;99.90;;;;;;4152663;28;20049;-73
2021/09/20 00:21:58;;;;;;;9.18;8.13;;;11.20;99.90;;;;;;4144148;28;20026;-74
2021/09/20 00:23:59;;;;;;;8.68;7.43;;;11.10;99.90;;;;;;4148726;28;20493;-72
2021/09/20 00:26:00;;;;;;;8.80;7.25;;;11.10;99.90;;;;;;4146816;28;20480;-72
2021/09/20 00:28:00;;;;;;;11.63;8.32;;;11.00;99.90;;;;;;4149120;28;20504;-72
2021/09/20 00:30:03;;;;;;;9.50;7.93;;;11.00;99.90;;;;;;4146661;28;20041;-73
2021/09/20 00:32:04;;;;;;;14.55;8.63;;;10.90;99.90;;;;;;4152271;28;20042;-73
2021/09/20 00:34:05;;;;;;;9.73;8.13;;;10.90;99.90;;;;;;4146623;28;20157;-72
2021/09/20 00:36:06;;;;;;;10.30;9.18;;;10.90;99.90;;;;;;4154382;28;20037;-73
2021/09/20 00:38:06;;;;;;;11.07;8.35;;;10.80;99.90;;;;;;4145980;28;20030;-72
2021/09/20 00:40:08;;;;;;;8.93;8.02;;;10.80;99.90;;;;;;4147825;28;20038;-73
2021/09/20 00:42:09;;;;;;;12.07;7.90;;;;;;;;;;4148469;28;20057;-73
2021/09/20 00:44:09;;;;;;;9.60;7.20;;;10.60;99.90;;;;;;4147333;28;20030;-73
2021/09/20 00:46:11;;;;;;;9.50;8.02;;;10.50;99.90;;;;;;4148713;28;20485;-74
2021/09/20 00:48:12;;;;;;;13.48;8.23;;;10.40;99.90;;;;;;4147244;28;20147;-73
2021/09/20 00:50:13;;;;;;;11.02;8.55;;;10.30;99.90;;;;;;4156143;28;20116;-73
2021/09/20 00:52:14;;;;;;;11.88;8.43;;;10.20;99.90;;;;;;4146568;28;20374;-73
2021/09/20 00:54:14;;;;;;;9.00;8.10;;;10.10;99.90;;;;;;4147818;28;20042;-72
2021/09/20 00:56:15;;;;;;;9.13;8.15;;;10.00;99.90;;;;;;4145887;28;20045;-73
2021/09/20 00:58:16;;;;;;;10.63;9.27;;;9.90;99.90;;;;;;4147044;28;20065;-73
2021/09/20 01:00:17;;;;;;;14.55;8.57;;;10.00;99.90;;;;;;4140033;28;20449;-73
2021/09/20 01:02:18;;;;;;;10.07;8.93;;;10.00;99.90;;;;;;4143283;28;20046;-72
2021/09/20 01:04:19;;;;;;;12.88;9.80;;;10.20;99.90;;;;;;4141474;28;20033;-73
2021/09/20 01:06:20;;;;;;;10.27;9.18;;;10.20;99.90;;;;;;4146610;28;20448;-73
2021/09/20 01:08:20;;;;;;;10.98;8.90;;;10.20;99.90;;;;;;4136107;28;20046;-73
2021/09/20 01:10:21;;;;;;;11.07;8.82;;;10.20;99.90;;;;;;4143261;28;21202;-73
2021/09/20 01:12:22;;;;;;;11.02;8.52;;;10.10;99.90;;;;;;4145862;28;20064;-73
2021/09/20 01:14:22;;;;;;;10.55;8.30;;;10.00;99.90;;;;;;4144300;28;20050;-74
2021/09/20 01:16:23;;;;;;;17.77;8.63;;;9.90;99.90;;;;;;4147266;28;20401;-73
2021/09/20 01:18:23;;;;;;;10.25;9.13;;;9.80;99.90;;;;;;4145812;28;20038;-73
2021/09/20 01:20:24;;;;;;;12.90;8.95;;;9.70;99.90;;;;;;4146114;28;20034;-72
2021/09/20 01:22:26;;;;;;;11.27;9.23;;;9.70;99.90;;;;;;4143796;28;20211;-73
2021/09/20 01:24:27;;;;;;;14.90;9.95;;;9.70;99.90;;;;;;4146095;28;20498;-74
2021/09/20 01:26:28;;;;;;;13.73;8.85;;;9.60;99.90;;;;;;4146305;28;20034;-73
2021/09/20 01:28:28;;;;;;;15.02;9.27;;;9.70;99.90;;;;;;4147308;28;20059;-73
2021/09/20 01:30:30;;;;;;;12.80;10.43;;;9.70;99.90;;;;;;4139315;28;20034;-73
2021/09/20 01:32:31;;;;;;;13.18;10.82;;;9.60;99.90;;;;;;4147149;28;20037;-73
2021/09/20 01:34:33;;;;;;;13.77;10.55;;;9.60;99.90;;;;;;4147501;28;20030;-73
2021/09/20 01:36:33;;;;;;;13.98;10.20;;;9.60;99.90;;;;;;4145947;28;20034;-73
2021/09/20 01:38:34;;;;;;;15.13;10.98;;;9.60;99.90;;;;;;4143661;28;20044;-73
2021/09/20 01:40:34;;;;;;;13.68;10.38;;;9.60;99.90;;;;;;4146525;28;20620;-73
2021/09/20 01:42:35;;;;;;;15.77;10.60;;;9.50;99.90;;;;;;4142215;28;20164;-72
2021/09/20 01:44:37;;;;;;;13.00;10.63;;;9.50;99.90;;;;;;4144897;28;20033;-73
2021/09/20 01:46:37;;;;;;;15.48;11.02;;;9.50;99.90;;;;;;4141985;28;20410;-73
2021/09/20 01:48:38;;;;;;;16.02;11.65;;;9.50;99.90;;;;;;4144363;28;20040;-73
2021/09/20 01:50:39;;;;;;;13.52;10.65;;;9.50;99.90;;;;;;4148321;28;20048;-72
2021/09/20 01:52:41;;;;;;;12.88;10.38;;;9.50;99.90;;;;;;4143303;28;20034;-73
2021/09/20 01:54:42;;;;;;;13.93;10.57;;;9.40;99.90;;;;;;4146898;28;20293;-73
2021/09/20 01:56:43;;;;;;;15.88;11.30;;;9.30;99.90;;;;;;4136998;28;20042;-73
2021/09/20 01:58:43;;;;;;;16.52;12.43;;;9.30;99.90;;;;;;4144201;28;20425;-72
2021/09/20 02:00:45;;;;;;;15.40;12.38;;;9.20;99.90;;;;;;4143593;28;20088;-72
2021/09/20 02:02:46;;;;;;;19.33;12.52;;;9.20;99.90;;;;;;4143360;28;20631;-72
2021/09/20 02:04:47;;;;;;;18.02;13.90;;;9.10;99.90;;;;;;4145209;28;20042;-73
2021/09/20 02:06:47;;;;;;;19.25;12.95;;;9.00;99.90;;;;;;4144079;28;20042;-74
2021/09/20 02:08:49;;;;;;;20.52;13.38;;;;;;;;;;4140820;28;20406;-73
2021/09/20 02:10:50;;;;;;;18.45;13.85;;;9.10;99.90;;;;;;4145256;28;20046;-73
2021/09/20 02:12:51;;;;;;;18.27;13.35;;;9.10;99.90;;;;;;4140748;28;20128;-73
2021/09/20 02:14:52;;;;;;;21.58;13.88;;;;;;;;;;4144617;28;20077;-73
2021/09/20 02:16:53;;;;;;;20.55;13.50;;;9.10;99.90;;;;;;4146657;28;20439;-72
2021/09/20 02:18:54;;;;;;;20.40;14.82;;;9.10;99.90;;;;;;4144539;28;20037;-72
2021/09/20 02:20:54;;;;;;;18.48;12.98;;;9.10;99.90;;;;;;4145457;28;20512;-72
2021/09/20 02:22:55;;;;;;;22.40;12.90;;;9.10;99.90;;;;;;4139863;28;20493;-72
2021/09/20 02:24:55;;;;;;;18.50;13.23;;;9.10;99.90;;;;;;4147893;28;20042;-72
2021/09/20 02:26:56;;;;;;;18.00;13.52;;;9.00;99.90;;;;;;4146327;28;20552;-71
2021/09/20 02:28:56;;;;;;;30.15;16.83;;;9.00;99.90;;;;;;4146161;28;20442;-72
2021/09/20 02:30:57;;;;;;;18.88;13.85;;;9.00;99.90;;;;;;4145670;28;20362;-72
2021/09/20 02:32:58;;;;;;;21.65;15.30;;;8.90;99.90;;;;;;4145860;28;20045;-72
2021/09/20 02:34:59;;;;;;;19.92;14.65;;;8.90;99.90;;;;;;4145654;28;20182;-72
2021/09/20 02:37:00;;;;;;;24.80;15.73;;;8.80;99.90;;;;;;4145413;28;20149;-72
2021/09/20 02:39:01;;;;;;;18.80;14.23;;;8.80;99.90;;;;;;4138611;28;20343;-72
2021/09/20 02:41:02;;;;;;;21.20;14.13;;;8.70;99.90;;;;;;4145413;28;20044;-73
2021/09/20 02:43:03;;;;;;;19.13;13.80;;;8.70;99.90;;;;;;4146771;28;20560;-72
2021/09/20 02:45:06;;;;;;;21.52;15.05;;;8.60;99.90;;;;;;4144566;28;20029;-72
2021/09/20 02:47:06;;;;;;;20.65;15.73;;;8.60;99.90;;;;;;4146332;28;20030;-72
2021/09/20 02:49:08;;;;;;;22.55;15.15;;;8.50;99.90;;;;;;4140495;28;20033;-72
2021/09/20 02:51:08;;;;;;;24.80;15.38;;;8.50;99.90;;;;;;4150643;28;20436;-72
2021/09/20 02:53:09;;;;;;;22.50;15.65;;;8.50;99.90;;;;;;4146522;28;20030;-73
2021/09/20 02:55:10;;;;;;;22.65;15.57;;;8.50;99.90;;;;;;4146246;28;20046;-73
2021/09/20 02:57:11;;;;;;;24.67;15.82;;;8.50;99.90;;;;;;4145332;28;20026;-73
2021/09/20 02:59:12;;;;;;;22.75;15.45;;;8.50;99.90;;;;;;4146556;28;20568;-72
2021/09/20 03:01:12;;;;;;;24.63;16.33;;;8.40;99.90;;;;;;4143917;28;20061;-72
2021/09/20 03:03:13;;;;;;;23.55;17.10;;;8.40;99.90;;;;;;4145842;28;20030;-73
2021/09/20 03:05:13;;;;;;;22.20;15.63;;;8.40;99.90;;;;;;4144861;28;20033;-72
2021/09/20 03:07:14;;;;;;;22.35;15.18;;;8.40;99.90;;;;;;4147069;28;20099;-72
2021/09/20 03:09:15;;;;;;;23.63;15.75;;;8.40;99.90;;;;;;4145287;28;20030;-73
2021/09/20 03:11:15;;;;;;;24.25;17.45;;;8.40;99.90;;;;;;4142262;28;20430;-72
2021/09/20 03:13:16;;;;;;;25.10;16.58;;;8.50;99.90;;;;;;4145177;28;20109;-73
2021/09/20 03:15:17;;;;;;;26.10;16.15;;;8.50;99.90;;;;;;4143511;28;20568;-72
2021/09/20 03:17:17;;;;;;;22.23;15.18;;;8.50;99.90;;;;;;4146076;28;20050;-72
2021/09/20 03:19:18;;;;;;;27.90;17.98;;;8.50;99.90;;;;;;4145117;28;20100;-73
2021/09/20 03:21:23;;;;;;;25.25;16.55;;;8.50;99.90;;;;;;4155465;28;20044;-72
2021/09/20 03:23:24;;;;;;;26.08;16.02;;;8.50;99.90;;;;;;4145653;28;20137;-73
2021/09/20 03:25:24;;;;;;;24.15;15.32;;;8.40;99.90;;;;;;4146894;28;20092;-72
2021/09/20 03:27:25;;;;;;;24.13;16.67;;;8.30;99.90;;;;;;4145074;28;20037;-73
2021/09/20 03:29:26;;;;;;;25.20;16.73;;;8.30;99.90;;;;;;4146687;28;20074;-73
2021/09/20 03:31:26;;;;;;;27.38;16.55;;;8.20;99.90;;;;;;4146056;28;20088;-73
2021/09/20 03:33:27;;;;;;;22.35;15.93;;;8.20;99.90;;;;;;4144698;28;20034;-73
2021/09/20 03:35:27;;;;;;;21.38;14.82;;;8.20;99.90;;;;;;4145351;28;20044;-73
2021/09/20 03:37:28;;;;;;;24.38;15.98;;;8.20;99.90;;;;;;4144738;28;20034;-72
2021/09/20 03:39:28;;;;;;;23.20;16.25;;;8.30;99.90;;;;;;4151591;28;20037;-72
2021/09/20 03:41:29;;;;;;;27.02;16.83;;;8.30;99.90;;;;;;4141501;28;20032;-73
2021/09/20 03:43:30;;;;;;;24.50;16.35;;;8.30;99.90;;;;;;4142363;28;20045;-73
2021/09/20 03:45:30;;;;;;;25.42;16.35;;;8.30;99.90;;;;;;4143675;28;20124;-71
2021/09/20 03:47:31;;;;;;;27.55;15.73;;;8.30;99.90;;;;;;4145370;28;20161;-72
2021/09/20 03:49:33;;;;;;;24.15;16.70;;;8.20;99.90;;;;;;4144798;28;20044;-72
2021/09/20 03:51:33;;;;;;;24.90;16.33;;;8.20;99.90;;;;;;4146119;28;20045;-73
2021/09/20 03:53:35;;;;;;;20.17;14.35;;;8.20;99.90;;;;;;4146036;28;20038;-72
2021/09/20 03:55:35;;;;;;;24.98;16.05;;;8.20;99.90;;;;;;4150382;28;20057;-72
2021/09/20 03:57:36;;;;;;;23.30;15.90;;;8.20;99.90;;;;;;4141020;28;20030;-73
2021/09/20 03:59:37;;;;;;;25.70;15.85;;;8.20;99.90;;;;;;4146081;28;20060;-73
2021/09/20 04:01:37;;;;;;;28.50;15.88;;;8.20;99.90;;;;;;4144242;28;20060;-73
2021/09/20 04:03:38;;;;;;;26.02;16.15;;;8.10;99.90;;;;;;4147278;28;20148;-73
2021/09/20 04:05:38;;;;;;;25.55;16.45;;;8.10;99.90;;;;;;4147855;28;20482;-73
2021/09/20 04:07:42;;;;;;;24.70;15.23;;;8.10;99.90;;;;;;4146847;28;20033;-74
2021/09/20 04:09:42;;;;;;;24.85;16.45;;;8.00;99.90;;;;;;4152589;28;20038;-73
2021/09/20 04:11:43;;;;;;;24.58;16.23;;;8.00;99.90;;;;;;4144818;28;20091;-72
2021/09/20 04:13:44;;;;;;;22.65;15.40;;;7.90;99.90;;;;;;4148060;28;20530;-73
2021/09/20 04:15:45;;;;;;;30.30;16.98;;;7.90;99.90;;;;;;4146705;28;20049;-73
2021/09/20 04:17:45;;;;;;;27.83;16.33;;;7.90;99.90;;;;;;4148161;28;20413;-73
2021/09/20 04:19:46;;;;;;;28.02;16.90;;;8.00;99.90;;;;;;4146928;28;20054;-73
2021/09/20 04:21:46;;;;;;;26.80;16.38;;;8.00;99.90;;;;;;4148076;28;20115;-73
2021/09/20 04:23:47;;;;;;;28.60;17.00;;;7.90;99.90;;;;;;4151417;28;20446;-73
2021/09/20 04:25:50;;;;;;;24.60;15.10;;;7.90;99.90;;;;;;4149142;28;20068;-73
2021/09/20 04:27:50;;;;;;;27.40;17.63;;;7.80;99.90;;;;;;4145745;28;20046;-73
2021/09/20 04:29:51;;;;;;;35.85;18.10;;;7.80;99.90;;;;;;4146781;28;20045;-73
2021/09/20 04:31:51;;;;;;;26.08;17.50;;;7.80;99.90;;;;;;4149143;28;20065;-73
2021/09/20 04:33:52;;;;;;;29.02;17.83;;;7.90;99.90;;;;;;4146928;28;20117;-73
2021/09/20 04:35:53;;;;;;;26.08;17.08;;;7.90;99.90;;;;;;4148751;28;20026;-71
2021/09/20 04:37:53;;;;;;;27.75;17.77;;;7.90;99.90;;;;;;4143570;28;20065;-72
2021/09/20 04:39:54;;;;;;;30.85;19.15;;;7.90;99.90;;;;;;4144111;28;20045;-72
2021/09/20 04:41:54;;;;;;;36.45;17.77;;;7.90;99.90;;;;;;4145691;28;20458;-72
2021/09/20 04:43:55;;;;;;;29.08;18.58;;;7.80;99.90;;;;;;4147184;28;20041;-72
2021/09/20 04:45:56;;;;;;;37.33;18.48;;;7.80;99.90;;;;;;4141540;28;20050;-73
2021/09/20 04:47:56;;;;;;;30.23;18.40;;;7.80;99.90;;;;;;4139582;28;20088;-73
2021/09/20 04:49:57;;;;;;;32.10;17.88;;;7.80;99.90;;;;;;4140152;28;20068;-72
2021/09/20 04:51:58;;;;;;;33.17;18.85;;;7.80;99.90;;;;;;4141588;28;20053;-73
2021/09/20 04:53:58;;;;;;;29.30;17.27;;;7.70;99.90;;;;;;4139227;28;20053;-73
2021/09/20 04:55:59;;;;;;;30.52;18.80;;;7.70;99.90;;;;;;4141924;28;20070;-72
2021/09/20 04:58:04;;;;;;;30.17;16.90;;;7.70;99.90;;;;;;4145021;28;20030;-72
2021/09/20 05:00:10;;;;;;;30.73;18.23;;;7.60;99.90;;;;;;4143139;28;20116;-73
2021/09/20 05:02:11;;;;;;;28.90;20.25;;;7.60;99.90;;;;;;4134497;28;20037;-73
2021/09/20 05:04:14;;;;;;;29.92;18.50;;;7.70;99.90;;;;;;4139649;28;20062;-73
2021/09/20 05:06:15;;;;;;;32.05;20.92;;;7.70;99.90;;;;;;4141257;28;20038;-73
2021/09/20 05:08:17;;;;;;;33.15;19.73;;;7.80;99.90;;;;;;4143971;28;20022;-73
2021/09/20 05:10:17;;;;;;;37.03;19.75;;;7.80;99.90;;;;;;4144603;28;20641;-73
2021/09/20 05:12:18;;;;;;;32.08;19.38;;;7.80;99.90;;;;;;4144794;28;20044;-72
2021/09/20 05:14:19;;;;;;;30.20;18.98;;;7.80;99.90;;;;;;4145963;28;20037;-72
2021/09/20 05:16:20;;;;;;;30.85;19.75;;;7.70;99.90;;;;;;4143354;28;20042;-72
2021/09/20 05:18:21;;;;;;;32.15;18.85;;;7.70;99.90;;;;;;4143778;28;20042;-72
2021/09/20 05:20:22;;;;;;;28.25;18.60;;;7.70;99.90;;;;;;4146174;28;20424;-72
2021/09/20 05:22:23;;;;;;;31.15;18.75;;;7.70;99.90;;;;;;4145012;28;20398;-72
2021/09/20 05:24:23;;;;;;;28.98;19.75;;;7.70;99.90;;;;;;4141776;28;20034;-72
2021/09/20 05:26:24;;;;;;;36.67;20.67;;;7.70;99.90;;;;;;4145041;28;20041;-72
2021/09/20 05:28:25;;;;;;;35.08;18.52;;;7.60;99.90;;;;;;4143686;28;20193;-73
2021/09/20 05:30:26;;;;;;;35.97;19.08;;;7.60;99.90;;;;;;4146057;28;20034;-73
2021/09/20 05:32:26;;;;;;;32.40;20.15;;;7.60;99.90;;;;;;4148487;28;20090;-73
2021/09/20 05:34:29;;;;;;;42.60;20.77;;;7.60;99.90;;;;;;4144756;28;20111;-72
2021/09/20 05:36:29;;;;;;;31.25;18.33;;;7.70;99.90;;;;;;4137621;28;20117;-73
2021/09/20 05:38:31;;;;;;;29.27;19.20;;;7.80;99.90;;;;;;4136694;28;20042;-72
2021/09/20 05:40:33;;;;;;;32.50;19.08;;;7.80;99.90;;;;;;4157541;28;20493;-72
2021/09/20 05:42:34;;;;;;;37.50;20.42;;;7.80;99.90;;;;;;4144647;28;20033;-72
2021/09/20 05:44:35;;;;;;;31.73;19.90;;;7.80;99.90;;;;;;4141238;28;20168;-72
2021/09/20 05:46:36;;;;;;;34.60;21.48;;;7.90;99.90;;;;;;4145674;28;20038;-72
2021/09/20 05:48:36;;;;;;;33.75;19.27;;;7.90;99.90;;;;;;4145148;28;20385;-73
2021/09/20 05:50:38;;;;;;;43.10;26.05;;;7.90;99.90;;;;;;4140677;28;20073;-73
2021/09/20 05:52:38;;;;;;;35.13;21.20;;;7.90;99.90;;;;;;4146695;28;20041;-71
2021/09/20 05:54:39;;;;;;;38.65;19.83;;;7.90;99.90;;;;;;4144680;28;20042;-73
2021/09/20 05:56:40;;;;;;;35.53;20.05;;;8.00;99.90;;;;;;4139714;28;20044;-73
2021/09/20 05:58:41;;;;;;;35.78;20.60;;;8.00;99.90;;;;;;4132910;28;20060;-73
2021/09/20 06:00:43;;;;;;;32.97;20.77;;;8.00;99.90;;;;;;4142974;28;20113;-73
2021/09/20 06:02:44;;;;;;;40.03;21.27;;;8.10;99.90;;;;;;4134095;28;20033;-72
2021/09/20 06:04:44;;;;;;;36.03;21.02;;;8.10;99.90;;;;;;4137458;28;20541;-73
2021/09/20 06:06:45;;;;;;;33.50;18.75;;;8.20;99.90;;;;;;4144373;28;20517;-72
2021/09/20 06:08:45;;;;;;;35.75;21.58;;;8.30;99.90;;;;;;4134566;28;20054;-72
2021/09/20 06:10:46;;;;;;;36.72;20.80;;;8.30;99.90;;;;;;4138011;28;20069;-74
2021/09/20 06:12:47;;;;;;;34.53;20.27;;;8.30;99.90;;;;;;4131122;28;20050;-75
2021/09/20 06:14:48;;;;;;;43.92;21.58;;;8.40;99.90;;;;;;4135492;28;20069;-74
2021/09/20 06:16:48;;;;;;;37.85;21.60;;;8.40;99.90;;;;;;4143373;28;20034;-75
2021/09/20 06:18:49;;;;;;;31.77;21.15;;;8.50;99.90;;;;;;4142608;28;20100;-74
2021/09/20 06:20:49;;;;;;;35.28;20.48;;;8.50;99.90;;;;;;4132200;28;20837;-74
2021/09/20 06:22:50;;;;;;;38.33;21.55;;;8.60;99.90;;;;;;4137425;28;20030;-73
2021/09/20 06:24:51;;;;;;;31.60;20.65;;;8.60;99.90;;;;;;4145154;28;20033;-75
2021/09/20 06:26:52;;;;;;;30.92;19.55;;;8.70;99.90;;;;;;4142323;28;20456;-74
2021/09/20 06:28:52;;;;;;;34.00;19.65;;;8.70;99.90;;;;;;4147521;28;20033;-74
2021/09/20 06:30:54;;;;;;;33.75;19.50;;;8.80;99.90;;;;;;4135521;28;20141;-75
2021/09/20 06:32:54;;;;;;;37.65;22.63;;;8.90;99.90;;;;;;4135723;28;20038;-75
2021/09/20 06:34:55;;;;;;;32.70;21.02;;;9.00;99.90;;;;;;4136959;28;20068;-73
2021/09/20 06:36:56;;;;;;;35.65;21.15;;;9.00;99.90;;;;;;4135886;28;20168;-75
2021/09/20 06:38:57;;;;;;;37.85;20.92;;;9.10;99.90;;;;;;4136531;28;20498;-75
2021/09/20 06:40:57;;;;;;;33.15;21.42;;;9.20;99.90;;;;;;4134919;28;20037;-75
2021/09/20 06:42:58;;;;;;;37.88;20.52;;;9.20;99.90;;;;;;4136153;28;20056;-74
2021/09/20 06:44:59;;;;;;;36.65;21.02;;;9.20;99.90;;;;;;4135614;28;20033;-74
2021/09/20 06:46:59;;;;;;;34.42;21.45;;;9.30;99.90;;;;;;4136445;28;20112;-74
2021/09/20 06:49:00;;;;;;;30.45;20.52;;;9.40;99.90;;;;;;4135267;28;20041;-74
2021/09/20 06:51:01;;;;;;;33.65;19.13;;;9.40;99.90;;;;;;4136700;28;20417;-75
2021/09/20 06:53:02;;;;;;;29.58;19.65;;;9.50;99.90;;;;;;4135496;28;20034;-75
2021/09/20 06:55:04;;;;;;;27.58;21.50;;;9.60;99.90;;;;;;4136229;28;20045;-74
2021/09/20 06:57:04;;;;;;;26.50;19.77;;;9.70;99.90;;;;;;4134145;28;20088;-75
2021/09/20 06:59:05;;;;;;;28.67;18.83;;;9.70;99.90;;;;;;4134279;28;20054;-74
2021/09/20 07:01:06;;;;;;;30.48;18.38;;;9.80;99.90;;;;;;4134401;28;20041;-75
2021/09/20 07:03:06;;;;;;;25.77;18.17;;;10.00;99.90;;;;;;4134366;28;20100;-75
2021/09/20 07:05:08;;;;;;;23.40;17.80;;;10.10;99.90;;;;;;4135616;28;20497;-75
2021/09/20 07:07:09;;;;;;;26.55;17.75;;;10.20;99.90;;;;;;4135360;28;20046;-75
2021/09/20 07:09:09;;;;;;;23.02;17.35;;;10.30;99.90;;;;;;4136749;28;20030;-74
2021/09/20 07:11:10;;;;;;;25.95;18.30;;;10.40;99.90;;;;;;4135434;28;20106;-75
2021/09/20 07:13:11;;;;;;;23.00;17.60;;;10.60;99.90;;;;;;4136808;28;20484;-75
2021/09/20 07:15:13;;;;;;;24.02;17.98;;;10.60;99.90;;;;;;4134977;28;20046;-75
2021/09/20 07:17:14;;;;;;;21.58;16.60;;;10.70;99.90;;;;;;4136646;28;20121;-75
2021/09/20 07:19:15;;;;;;;21.40;16.40;;;10.90;99.90;;;;;;4133580;28;21584;-75
2021/09/20 07:21:15;;;;;;;20.02;17.33;;;11.00;99.90;;;;;;4136969;28;20491;-74
2021/09/20 07:23:16;;;;;;;17.77;15.18;;;11.10;99.90;;;;;;4134939;28;20390;-75
2021/09/20 07:25:17;;;;;;;20.92;15.77;;;11.20;99.90;;;;;;4136923;28;20513;-75
2021/09/20 07:27:18;;;;;;;17.70;14.00;;;11.40;99.90;;;;;;4135656;28;20127;-75
2021/09/20 07:29:19;;;;;;;20.63;14.73;;;11.40;99.90;;;;;;4136163;28;20382;-74
2021/09/20 07:31:19;;;;;;;20.60;14.82;;;11.60;99.90;;;;;;4136052;28;20025;-74
2021/09/20 07:33:20;;;;;;;21.45;14.70;;;11.60;99.90;;;;;;4138172;28;20030;-74
2021/09/20 07:35:21;;;;;;;16.73;13.60;;;11.70;99.90;;;;;;4138004;28;20166;-74
2021/09/20 07:37:22;;;;;;;19.08;14.38;;;11.80;99.90;;;;;;4137510;28;20034;-74
2021/09/20 07:39:23;;;;;;;22.13;15.07;;;11.90;99.90;;;;;;4138875;28;20033;-74
2021/09/20 07:41:24;;;;;;;17.85;13.57;;;12.00;99.90;;;;;;4137783;28;20042;-74
2021/09/20 07:43:25;;;;;;;15.82;12.95;;;12.10;99.90;;;;;;4138891;28;20026;-75
2021/09/20 07:45:25;;;;;;;18.60;14.27;;;12.10;99.90;;;;;;4136661;28;20042;-75
2021/09/20 07:47:26;;;;;;;16.95;12.77;;;12.20;99.90;;;;;;4140614;28;20053;-74
2021/09/20 07:49:27;;;;;;;15.27;12.93;;;12.30;99.90;;;;;;4139469;28;20073;-75
2021/09/20 07:51:28;;;;;;;23.05;15.32;;;12.40;99.90;;;;;;4138203;28;20030;-74
2021/09/20 07:53:28;;;;;;;16.63;13.77;;;12.50;99.90;;;;;;4138998;28;20065;-74
2021/09/20 07:55:34;;;;;;;16.17;13.63;;;12.60;99.90;;;;;;4138890;28;20054;-74
2021/09/20 07:57:35;;;;;;;14.85;12.75;;;12.70;99.90;;;;;;4138774;28;20113;-74
2021/09/20 07:59:36;;;;;;;15.98;12.88;;;;;;;;;;4131214;28;20077;-74
2021/09/20 08:01:37;;;;;;;13.05;11.73;;;12.80;99.90;;;;;;4135950;28;20046;-75
2021/09/20 08:03:37;;;;;;;13.27;11.88;;;12.90;99.90;;;;;;4135849;28;20061;-75
2021/09/20 08:05:43;;;;;;;13.52;11.82;;;13.00;99.90;;;;;;4136593;28;20034;-75
2021/09/20 08:07:43;;;;;;;13.50;11.45;;;13.10;99.90;;;;;;4137946;28;20026;-75
2021/09/20 08:09:44;;;;;;;16.63;11.75;;;13.30;99.90;;;;;;4140141;28;20205;-74
2021/09/20 08:11:45;;;;;;;12.95;9.77;;;13.40;99.90;;;;;;4137195;28;20042;-74
2021/09/20 08:13:46;;;;;;;14.82;9.88;;;13.60;99.90;;;;;;4138661;28;20125;-75
2021/09/20 08:15:47;;;;;;;12.98;10.43;;;13.80;99.90;;;;;;4135000;28;20046;-75
2021/09/20 08:17:48;;;;;;;11.52;9.82;;;13.80;99.90;;;;;;4139179;28;20037;-75
2021/09/20 08:19:48;;;;;;;10.13;9.13;;;13.90;99.90;;;;;;4136249;28;20052;-74
2021/09/20 08:21:49;;;;;;;11.18;9.57;;;14.00;99.90;;;;;;4134752;28;20038;-75
2021/09/20 08:23:50;;;;;;;13.90;9.77;;;14.20;99.90;;;;;;4137449;28;20535;-75
2021/09/20 08:25:52;;;;;;;9.88;8.75;;;14.40;99.90;;;;;;4137882;28;20042;-74
2021/09/20 08:27:53;;;;;;;10.40;9.23;;;14.40;99.90;;;;;;4138006;28;20485;-75
2021/09/20 08:29:53;;;;;;;12.05;10.02;;;14.50;99.90;;;;;;4138334;28;20042;-74
2021/09/20 08:31:54;;;;;;;12.43;9.40;;;14.70;99.90;;;;;;4136097;28;20481;-75
2021/09/20 08:33:55;;;;;;;13.05;9.27;;;14.80;99.90;;;;;;4137723;28;20417;-75
2021/09/20 08:35:56;;;;;;;10.73;9.30;;;14.90;99.90;;;;;;4136770;28;20026;-74
2021/09/20 08:37:57;;;;;;;12.10;10.50;;;15.00;99.90;;;;;;4135779;28;20524;-74
2021/09/20 08:39:57;;;;;;;12.63;9.25;;;15.10;99.90;;;;;;4137986;28;20038;-76
2021/09/20 08:41:59;;;;;;;9.48;8.43;;;15.10;99.90;;;;;;4136345;28;20037;-74
2021/09/20 08:44:00;;;;;;;8.43;7.53;;;15.10;99.90;;;;;;4136845;28;20840;-75
2021/09/20 08:46:06;;;;;;;10.20;8.68;;;15.20;99.90;;;;;;4136671;28;20034;-75
2021/09/20 08:48:07;;;;;;;9.85;8.85;;;15.20;99.90;;;;;;4136848;28;20470;-74
2021/09/20 08:50:10;;;;;;;10.18;9.10;;;15.30;99.90;;;;;;4138499;28;20457;-74
2021/09/20 08:52:11;;;;;;;;;;;15.40;99.90;;;;;;4139076;28;20057;-75
2021/09/20 08:54:12;;;;;;;9.82;8.23;;;15.40;99.90;;;;;;4138311;28;19913;-75
2021/09/20 08:56:13;;;;;;;11.40;8.45;;;15.50;99.90;;;;;;4136772;28;20100;-76
2021/09/20 08:58:14;;;;;;;8.68;7.78;;;15.50;99.90;;;;;;4138031;28;20125;-74
2021/09/20 09:00:15;;;;;;;11.90;7.97;;;15.70;99.90;;;;;;4136814;28;20080;-75
2021/09/20 09:02:18;;;;;;;8.85;7.95;;;15.70;99.90;;;;;;4138237;28;20125;-75
2021/09/20 09:04:33;;;;;;;18.15;9.90;;;15.90;99.90;;;;;;4135834;28;20414;-75
2021/09/20 09:06:33;;;;;;;8.80;7.90;;;15.90;99.90;;;;;;4137920;28;20378;-75
2021/09/20 09:08:40;;;;;;;9.57;7.65;;;16.00;99.90;;;;;;4136394;28;20038;-74
2021/09/20 09:10:40;;;;;;;7.80;7.00;;;16.10;99.90;;;;;;4135868;28;20053;-75
2021/09/20 09:12:41;;;;;;;8.65;7.40;;;16.20;99.90;;;;;;4135762;28;20521;-75
2021/09/20 09:14:46;;;;;;;7.95;7.15;;;16.30;99.90;;;;;;4135721;28;20052;-75
2021/09/20 09:16:47;;;;;;;10.77;7.97;;;16.50;99.90;;;;;;4136591;28;20073;-74
2021/09/20 09:19:08;;;;;;;7.15;6.30;;;16.70;99.90;;;;;;4137937;28;20046;-75
2021/09/20 09:21:21;;;;;;;7.95;6.82;;;16.70;99.90;;;;;;4135161;28;20026;-74
2021/09/20 09:23:22;;;;;;;9.23;7.47;;;16.90;99.90;;;;;;4136458;28;20100;-73
2021/09/20 09:25:24;;;;;;;7.88;6.85;;;17.10;99.90;;;;;;4137748;28;20042;-75
2021/09/20 09:27:25;;;;;;;10.07;7.03;;;17.10;99.90;;;;;;4133837;28;20121;-74
2021/09/20 09:29:32;;;;;;;12.15;7.15;;;17.30;99.90;;;;;;4136603;28;20930;-75
2021/09/20 09:31:36;;;;;;;8.48;6.63;;;17.50;99.90;;;;;;4136762;28;20694;-74
2021/09/20 09:33:39;;;;;;;8.80;7.60;;;17.50;99.90;;;;;;4136276;28;20051;-74
2021/09/20 09:35:50;;;;;;;;;;;17.70;99.90;;;;;;4137771;28;20037;-74
2021/09/20 09:38:00;;;;;;;7.07;6.38;;;17.90;99.90;;;;;;4136051;28;19961;-74
2021/09/20 09:40:13;;;;;;;11.38;7.18;;;18.10;99.90;;;;;;4137159;28;20061;-74
2021/09/20 09:42:27;;;;;;;7.57;6.82;;;18.30;99.90;;;;;;4136798;28;20481;-74
2021/09/20 09:44:30;;;;;;;7.88;6.93;;;18.30;99.90;;;;;;4136559;28;20053;-73
2021/09/20 09:46:36;;;;;;;;;;;18.50;99.90;;;;;;4136854;28;20458;-75
2021/09/20 09:48:38;;;;;;;7.10;6.40;;;18.70;99.90;;;;;;4136790;28;19921;-74
2021/09/20 09:51:06;;;;;;;8.30;6.72;;;18.90;99.90;;;;;;4136416;28;20516;-75
2021/09/20 09:53:07;;;;;;;8.93;6.97;;;18.80;99.90;;;;;;4130910;28;20042;-74
2021/09/20 09:55:09;;;;;;;7.55;6.85;;;18.80;99.90;;;;;;4136648;28;20053;-73
2021/09/20 09:57:24;;;;;;;8.95;6.50;;;18.80;99.90;;;;;;4134497;28;20041;-75
2021/09/20 09:59:27;;;;;;;9.25;6.57;;;18.90;99.90;;;;;;4136442;28;20137;-73
2021/09/20 10:01:36;;;;;;;10.68;7.03;;;19.30;99.90;;;;;;4130454;28;20037;-73
2021/09/20 10:04:12;;;;;;;7.82;7.00;;;19.30;99.90;;;;;;4135155;28;20533;-73
2021/09/20 10:06:13;;;;;;;7.50;6.75;;;19.00;99.90;;;;;;4135135;28;20091;-73
2021/09/20 10:08:14;;;;;;;8.68;5.82;;;19.00;99.90;;;;;;4135815;28;20497;-75
2021/09/20 10:10:29;;;;;;;9.10;7.22;;;19.00;99.90;;;;;;4134628;28;20058;-74
2021/09/20 10:12:30;;;;;;;7.28;6.55;;;19.20;99.90;;;;;;4134048;28;20034;-75
2021/09/20 10:14:31;;;;;;;8.05;6.60;;;19.20;99.90;;;;;;4134195;28;20116;-75
2021/09/20 10:16:33;;;;;;;8.00;6.85;;;19.30;99.90;;;;;;4134891;28;20057;-75
2021/09/20 10:18:33;;;;;;;7.25;6.55;;;19.40;99.90;;;;;;4133909;28;20558;-74
2021/09/20 10:20:34;;;;;;;8.32;6.78;;;19.30;99.90;;;;;;4135944;28;20172;-74
2021/09/20 10:22:35;;;;;;;8.27;6.43;;;19.40;99.90;;;;;;4137153;28;20490;-74
2021/09/20 10:24:36;;;;;;;6.90;6.25;;;19.50;99.90;;;;;;4135624;28;20139;-74
2021/09/20 10:26:37;;;;;;;7.43;6.22;;;19.60;99.90;;;;;;4137353;28;20061;-74
2021/09/20 10:28:38;;;;;;;7.95;6.22;;;19.90;99.90;;;;;;4137074;28;20071;-74